sensor_id;sensor_type;location;lat;lon;timestamp;P1;durP1;ratioP1;P2;durP2;ratioP2
17953;SDS011;9102;53.548;9.926;2023-05-31T00:00:15;11.25;;;3.08;;
17953;SDS011;9102;53.548;9.926;2023-05-31T00:02:44;7.28;;;2.90;;
17953;SDS011;9102;53.548;9.926;2023-05-31T00:05:10;6.38;;;2.90;;
17953;SDS011;9102;53.548;9.926;2023-05-31T00:07:37;8.30;;;3.40;;
17953;SDS011;9102;53.548;9.926;2023-05-31T00:10:04;9.30;;;3.17;;
17953;SDS011;9102;53.548;9.926;2023-05-31T00:12:32;8.68;;;3.38;;
17953;SDS011;9102;53.548;9.926;2023-05-31T00:14:59;8.43;;;3.05;;
17953;SDS011;9102;53.548;9.926;2023-05-31T00:17:25;8.35;;;3.10;;
17953;SDS011;9102;53.548;9.926;2023-05-31T00:19:53;7.43;;;3.22;;
17953;SDS011;9102;53.548;9.926;2023-05-31T00:22:20;9.00;;;3.28;;
17953;SDS011;9102;53.548;9.926;2023-05-31T00:24:47;7.25;;;3.40;;
17953;SDS011;9102;53.548;9.926;2023-05-31T00:27:14;6.93;;;3.00;;
17953;SDS011;9102;53.548;9.926;2023-05-31T00:29:41;8.63;;;2.80;;
17953;SDS011;9102;53.548;9.926;2023-05-31T00:32:07;11.85;;;3.63;;
17953;SDS011;9102;53.548;9.926;2023-05-31T00:34:34;11.07;;;3.00;;
17953;SDS011;9102;53.548;9.926;2023-05-31T00:37:02;6.38;;;3.40;;
17953;SDS011;9102;53.548;9.926;2023-05-31T00:39:30;8.75;;;3.63;;
17953;SDS011;9102;53.548;9.926;2023-05-31T00:41:56;11.02;;;3.58;;
17953;SDS011;9102;53.548;9.926;2023-05-31T00:44:23;12.18;;;3.92;;
17953;SDS011;9102;53.548;9.926;2023-05-31T00:46:50;9.50;;;3.20;;
17953;SDS011;9102;53.548;9.926;2023-05-31T00:49:17;11.07;;;3.85;;
17953;SDS011;9102;53.548;9.926;2023-05-31T00:51:44;12.75;;;3.80;;
17953;SDS011;9102;53.548;9.926;2023-05-31T00:54:13;8.82;;;3.65;;
17953;SDS011;9102;53.548;9.926;2023-05-31T00:56:40;9.77;;;3.97;;
17953;SDS011;9102;53.548;9.926;2023-05-31T00:59:07;8.88;;;4.15;;
17953;SDS011;9102;53.548;9.926;2023-05-31T01:01:33;12.77;;;4.30;;
17953;SDS011;9102;53.548;9.926;2023-05-31T01:04:01;13.18;;;4.63;;
17953;SDS011;9102;53.548;9.926;2023-05-31T01:06:27;7.45;;;4.10;;
17953;SDS011;9102;53.548;9.926;2023-05-31T01:08:57;10.68;;;4.68;;
17953;SDS011;9102;53.548;9.926;2023-05-31T01:11:29;11.90;;;5.32;;
17953;SDS011;9102;53.548;9.926;2023-05-31T01:14:09;8.85;;;5.25;;
17953;SDS011;9102;53.548;9.926;2023-05-31T01:16:45;12.63;;;5.40;;
17953;SDS011;9102;53.548;9.926;2023-05-31T01:19:17;11.70;;;5.05;;
17953;SDS011;9102;53.548;9.926;2023-05-31T01:21:56;10.82;;;5.00;;
17953;SDS011;9102;53.548;9.926;2023-05-31T01:24:31;14.32;;;6.22;;
17953;SDS011;9102;53.548;9.926;2023-05-31T01:27:07;14.02;;;5.50;;
17953;SDS011;9102;53.548;9.926;2023-05-31T01:29:34;13.80;;;5.78;;
17953;SDS011;9102;53.548;9.926;2023-05-31T01:32:03;10.98;;;4.88;;
17953;SDS011;9102;53.548;9.926;2023-05-31T01:34:31;12.05;;;5.50;;
17953;SDS011;9102;53.548;9.926;2023-05-31T01:36:57;16.25;;;6.25;;
17953;SDS011;9102;53.548;9.926;2023-05-31T01:39:24;14.52;;;6.07;;
17953;SDS011;9102;53.548;9.926;2023-05-31T01:41:51;15.88;;;5.97;;
17953;SDS011;9102;53.548;9.926;2023-05-31T01:44:20;12.30;;;5.50;;
17953;SDS011;9102;53.548;9.926;2023-05-31T01:46:47;15.02;;;5.57;;
17953;SDS011;9102;53.548;9.926;2023-05-31T01:49:15;13.82;;;5.45;;
17953;SDS011;9102;53.548;9.926;2023-05-31T01:51:43;10.77;;;5.30;;
17953;SDS011;9102;53.548;9.926;2023-05-31T01:54:11;12.35;;;5.60;;
17953;SDS011;9102;53.548;9.926;2023-05-31T01:56:39;10.48;;;5.47;;
17953;SDS011;9102;53.548;9.926;2023-05-31T01:59:08;15.15;;;6.10;;
17953;SDS011;9102;53.548;9.926;2023-05-31T02:01:37;13.13;;;6.00;;
17953;SDS011;9102;53.548;9.926;2023-05-31T02:04:05;14.45;;;5.75;;
17953;SDS011;9102;53.548;9.926;2023-05-31T02:06:34;11.40;;;5.55;;
17953;SDS011;9102;53.548;9.926;2023-05-31T02:09:01;18.08;;;6.70;;
17953;SDS011;9102;53.548;9.926;2023-05-31T02:11:29;14.20;;;6.30;;
17953;SDS011;9102;53.548;9.926;2023-05-31T02:13:55;13.35;;;6.30;;
17953;SDS011;9102;53.548;9.926;2023-05-31T02:16:22;13.55;;;6.63;;
17953;SDS011;9102;53.548;9.926;2023-05-31T02:18:50;13.07;;;6.50;;
17953;SDS011;9102;53.548;9.926;2023-05-31T02:21:17;18.17;;;7.60;;
17953;SDS011;9102;53.548;9.926;2023-05-31T02:23:44;15.95;;;7.43;;
17953;SDS011;9102;53.548;9.926;2023-05-31T02:26:11;18.73;;;8.13;;
17953;SDS011;9102;53.548;9.926;2023-05-31T02:28:37;17.73;;;7.18;;
17953;SDS011;9102;53.548;9.926;2023-05-31T02:31:05;14.77;;;7.55;;
17953;SDS011;9102;53.548;9.926;2023-05-31T02:33:32;16.83;;;7.22;;
17953;SDS011;9102;53.548;9.926;2023-05-31T02:36:00;19.40;;;7.93;;
17953;SDS011;9102;53.548;9.926;2023-05-31T02:38:27;15.65;;;7.43;;
17953;SDS011;9102;53.548;9.926;2023-05-31T02:40:54;20.23;;;7.25;;
17953;SDS011;9102;53.548;9.926;2023-05-31T02:43:21;15.48;;;7.00;;
17953;SDS011;9102;53.548;9.926;2023-05-31T02:45:48;19.13;;;6.70;;
17953;SDS011;9102;53.548;9.926;2023-05-31T02:48:15;14.82;;;6.55;;
17953;SDS011;9102;53.548;9.926;2023-05-31T02:50:42;13.68;;;6.55;;
17953;SDS011;9102;53.548;9.926;2023-05-31T02:53:10;14.45;;;6.47;;
17953;SDS011;9102;53.548;9.926;2023-05-31T02:55:37;13.52;;;6.25;;
17953;SDS011;9102;53.548;9.926;2023-05-31T02:58:04;13.20;;;6.10;;
17953;SDS011;9102;53.548;9.926;2023-05-31T03:00:31;17.88;;;6.60;;
17953;SDS011;9102;53.548;9.926;2023-05-31T03:02:58;14.18;;;6.63;;
17953;SDS011;9102;53.548;9.926;2023-05-31T03:05:25;15.38;;;6.28;;
17953;SDS011;9102;53.548;9.926;2023-05-31T03:07:54;14.15;;;6.25;;
17953;SDS011;9102;53.548;9.926;2023-05-31T03:10:22;14.60;;;6.32;;
17953;SDS011;9102;53.548;9.926;2023-05-31T03:12:49;12.57;;;5.50;;
17953;SDS011;9102;53.548;9.926;2023-05-31T03:15:15;12.38;;;5.90;;
17953;SDS011;9102;53.548;9.926;2023-05-31T03:17:42;11.73;;;5.55;;
17953;SDS011;9102;53.548;9.926;2023-05-31T03:20:09;16.58;;;6.10;;
17953;SDS011;9102;53.548;9.926;2023-05-31T03:22:37;13.05;;;6.00;;
17953;SDS011;9102;53.548;9.926;2023-05-31T03:25:04;12.48;;;5.97;;
17953;SDS011;9102;53.548;9.926;2023-05-31T03:27:33;9.13;;;5.90;;
17953;SDS011;9102;53.548;9.926;2023-05-31T03:29:59;15.43;;;6.20;;
17953;SDS011;9102;53.548;9.926;2023-05-31T03:32:26;12.93;;;6.00;;
17953;SDS011;9102;53.548;9.926;2023-05-31T03:34:53;13.90;;;5.80;;
17953;SDS011;9102;53.548;9.926;2023-05-31T03:37:20;11.48;;;5.43;;
17953;SDS011;9102;53.548;9.926;2023-05-31T03:39:47;13.35;;;5.57;;
17953;SDS011;9102;53.548;9.926;2023-05-31T03:42:15;10.43;;;5.70;;
17953;SDS011;9102;53.548;9.926;2023-05-31T03:44:43;10.57;;;5.43;;
17953;SDS011;9102;53.548;9.926;2023-05-31T03:47:10;14.18;;;5.68;;
17953;SDS011;9102;53.548;9.926;2023-05-31T03:49:37;13.20;;;6.38;;
17953;SDS011;9102;53.548;9.926;2023-05-31T03:52:04;12.90;;;5.68;;
17953;SDS011;9102;53.548;9.926;2023-05-31T03:54:34;12.15;;;5.90;;
17953;SDS011;9102;53.548;9.926;2023-05-31T03:57:01;11.38;;;5.45;;
17953;SDS011;9102;53.548;9.926;2023-05-31T03:59:28;11.10;;;6.22;;
17953;SDS011;9102;53.548;9.926;2023-05-31T04:01:56;11.57;;;6.05;;
17953;SDS011;9102;53.548;9.926;2023-05-31T04:04:23;18.85;;;6.50;;
17953;SDS011;9102;53.548;9.926;2023-05-31T04:06:50;12.88;;;5.97;;
17953;SDS011;9102;53.548;9.926;2023-05-31T04:09:17;11.60;;;6.40;;
17953;SDS011;9102;53.548;9.926;2023-05-31T04:11:44;13.55;;;6.55;;
17953;SDS011;9102;53.548;9.926;2023-05-31T04:14:10;13.60;;;7.00;;
17953;SDS011;9102;53.548;9.926;2023-05-31T04:16:37;9.80;;;5.45;;
17953;SDS011;9102;53.548;9.926;2023-05-31T04:19:05;13.45;;;6.22;;
17953;SDS011;9102;53.548;9.926;2023-05-31T04:21:32;15.07;;;6.55;;
17953;SDS011;9102;53.548;9.926;2023-05-31T04:24:00;11.02;;;5.97;;
17953;SDS011;9102;53.548;9.926;2023-05-31T04:26:27;16.48;;;6.57;;
17953;SDS011;9102;53.548;9.926;2023-05-31T04:28:54;12.80;;;6.00;;
17953;SDS011;9102;53.548;9.926;2023-05-31T04:31:22;14.25;;;6.18;;
17953;SDS011;9102;53.548;9.926;2023-05-31T04:33:50;14.60;;;6.53;;
17953;SDS011;9102;53.548;9.926;2023-05-31T04:36:19;14.30;;;6.00;;
17953;SDS011;9102;53.548;9.926;2023-05-31T04:38:47;16.23;;;6.10;;
17953;SDS011;9102;53.548;9.926;2023-05-31T04:41:14;13.38;;;5.78;;
17953;SDS011;9102;53.548;9.926;2023-05-31T04:43:41;15.43;;;6.30;;
17953;SDS011;9102;53.548;9.926;2023-05-31T04:46:08;11.18;;;4.70;;
17953;SDS011;9102;53.548;9.926;2023-05-31T04:48:35;12.18;;;5.35;;
17953;SDS011;9102;53.548;9.926;2023-05-31T04:51:02;12.48;;;5.38;;
17953;SDS011;9102;53.548;9.926;2023-05-31T04:53:31;13.43;;;5.40;;
17953;SDS011;9102;53.548;9.926;2023-05-31T04:55:58;14.02;;;4.93;;
17953;SDS011;9102;53.548;9.926;2023-05-31T04:58:29;15.00;;;5.60;;
17953;SDS011;9102;53.548;9.926;2023-05-31T05:00:56;12.40;;;5.05;;
17953;SDS011;9102;53.548;9.926;2023-05-31T05:03:25;12.82;;;5.57;;
17953;SDS011;9102;53.548;9.926;2023-05-31T05:05:52;13.82;;;5.93;;
17953;SDS011;9102;53.548;9.926;2023-05-31T05:08:20;14.15;;;6.10;;
17953;SDS011;9102;53.548;9.926;2023-05-31T05:10:48;12.27;;;5.47;;
17953;SDS011;9102;53.548;9.926;2023-05-31T05:13:15;11.20;;;5.40;;
17953;SDS011;9102;53.548;9.926;2023-05-31T05:15:42;14.85;;;5.20;;
17953;SDS011;9102;53.548;9.926;2023-05-31T05:18:08;11.63;;;5.70;;
17953;SDS011;9102;53.548;9.926;2023-05-31T05:20:35;20.00;;;5.88;;
17953;SDS011;9102;53.548;9.926;2023-05-31T05:23:02;13.57;;;5.38;;
17953;SDS011;9102;53.548;9.926;2023-05-31T05:25:32;10.38;;;5.15;;
17953;SDS011;9102;53.548;9.926;2023-05-31T05:28:00;11.52;;;5.43;;
17953;SDS011;9102;53.548;9.926;2023-05-31T05:30:27;12.05;;;5.65;;
17953;SDS011;9102;53.548;9.926;2023-05-31T05:32:54;12.77;;;5.32;;
17953;SDS011;9102;53.548;9.926;2023-05-31T05:35:21;12.88;;;5.60;;
17953;SDS011;9102;53.548;9.926;2023-05-31T05:37:48;16.75;;;5.88;;
17953;SDS011;9102;53.548;9.926;2023-05-31T05:40:15;15.90;;;5.78;;
17953;SDS011;9102;53.548;9.926;2023-05-31T05:42:42;12.25;;;5.90;;
17953;SDS011;9102;53.548;9.926;2023-05-31T05:45:11;12.45;;;5.43;;
17953;SDS011;9102;53.548;9.926;2023-05-31T05:47:38;11.38;;;5.22;;
17953;SDS011;9102;53.548;9.926;2023-05-31T05:50:06;10.52;;;5.35;;
17953;SDS011;9102;53.548;9.926;2023-05-31T05:52:33;11.68;;;5.90;;
17953;SDS011;9102;53.548;9.926;2023-05-31T05:55:00;11.93;;;4.75;;
17953;SDS011;9102;53.548;9.926;2023-05-31T05:57:29;16.70;;;5.60;;
17953;SDS011;9102;53.548;9.926;2023-05-31T05:59:56;9.98;;;5.15;;
17953;SDS011;9102;53.548;9.926;2023-05-31T06:02:24;9.55;;;5.07;;
17953;SDS011;9102;53.548;9.926;2023-05-31T06:04:51;8.63;;;5.07;;
17953;SDS011;9102;53.548;9.926;2023-05-31T06:07:18;12.00;;;5.20;;
17953;SDS011;9102;53.548;9.926;2023-05-31T06:09:46;11.55;;;5.53;;
17953;SDS011;9102;53.548;9.926;2023-05-31T06:12:13;13.23;;;5.25;;
17953;SDS011;9102;53.548;9.926;2023-05-31T06:14:40;15.55;;;5.95;;
17953;SDS011;9102;53.548;9.926;2023-05-31T06:17:07;12.13;;;5.70;;
17953;SDS011;9102;53.548;9.926;2023-05-31T06:19:35;11.20;;;5.65;;
17953;SDS011;9102;53.548;9.926;2023-05-31T06:22:02;11.30;;;5.68;;
17953;SDS011;9102;53.548;9.926;2023-05-31T06:24:29;13.07;;;5.80;;
17953;SDS011;9102;53.548;9.926;2023-05-31T06:26:55;10.82;;;6.00;;
17953;SDS011;9102;53.548;9.926;2023-05-31T06:29:22;15.38;;;5.75;;
17953;SDS011;9102;53.548;9.926;2023-05-31T06:31:49;13.82;;;6.55;;
17953;SDS011;9102;53.548;9.926;2023-05-31T06:34:16;11.95;;;5.55;;
17953;SDS011;9102;53.548;9.926;2023-05-31T06:36:44;18.50;;;7.30;;
17953;SDS011;9102;53.548;9.926;2023-05-31T06:39:11;15.25;;;6.22;;
17953;SDS011;9102;53.548;9.926;2023-05-31T06:41:38;10.52;;;5.72;;
17953;SDS011;9102;53.548;9.926;2023-05-31T06:44:05;10.10;;;4.60;;
17953;SDS011;9102;53.548;9.926;2023-05-31T06:46:31;14.27;;;4.45;;
17953;SDS011;9102;53.548;9.926;2023-05-31T06:48:58;11.05;;;4.47;;
17953;SDS011;9102;53.548;9.926;2023-05-31T06:51:26;8.15;;;4.15;;
17953;SDS011;9102;53.548;9.926;2023-05-31T06:53:54;8.23;;;3.50;;
17953;SDS011;9102;53.548;9.926;2023-05-31T06:56:21;12.77;;;4.35;;
17953;SDS011;9102;53.548;9.926;2023-05-31T06:58:48;11.90;;;4.00;;
17953;SDS011;9102;53.548;9.926;2023-05-31T07:01:14;10.10;;;3.80;;
17953;SDS011;9102;53.548;9.926;2023-05-31T07:03:41;7.57;;;3.55;;
17953;SDS011;9102;53.548;9.926;2023-05-31T07:06:08;9.38;;;4.18;;
17953;SDS011;9102;53.548;9.926;2023-05-31T07:08:35;8.98;;;3.78;;
17953;SDS011;9102;53.548;9.926;2023-05-31T07:11:03;9.57;;;4.68;;
17953;SDS011;9102;53.548;9.926;2023-05-31T07:13:30;9.98;;;4.38;;
17953;SDS011;9102;53.548;9.926;2023-05-31T07:15:57;7.60;;;3.63;;
17953;SDS011;9102;53.548;9.926;2023-05-31T07:18:25;10.27;;;3.50;;
17953;SDS011;9102;53.548;9.926;2023-05-31T07:20:52;7.60;;;3.85;;
17953;SDS011;9102;53.548;9.926;2023-05-31T07:23:21;9.35;;;3.70;;
17953;SDS011;9102;53.548;9.926;2023-05-31T07:25:49;11.82;;;3.38;;
17953;SDS011;9102;53.548;9.926;2023-05-31T07:28:17;6.00;;;2.67;;
17953;SDS011;9102;53.548;9.926;2023-05-31T07:30:44;7.25;;;3.38;;
17953;SDS011;9102;53.548;9.926;2023-05-31T07:33:11;9.38;;;3.05;;
17953;SDS011;9102;53.548;9.926;2023-05-31T07:35:38;5.80;;;2.47;;
17953;SDS011;9102;53.548;9.926;2023-05-31T07:38:05;5.88;;;2.80;;
17953;SDS011;9102;53.548;9.926;2023-05-31T07:40:32;7.68;;;2.97;;
17953;SDS011;9102;53.548;9.926;2023-05-31T07:42:59;7.47;;;2.95;;
17953;SDS011;9102;53.548;9.926;2023-05-31T07:45:27;5.82;;;2.60;;
17953;SDS011;9102;53.548;9.926;2023-05-31T07:47:55;5.80;;;2.58;;
17953;SDS011;9102;53.548;9.926;2023-05-31T07:50:21;5.35;;;2.42;;
17953;SDS011;9102;53.548;9.926;2023-05-31T07:52:48;6.57;;;2.70;;
17953;SDS011;9102;53.548;9.926;2023-05-31T07:55:16;8.63;;;2.00;;
17953;SDS011;9102;53.548;9.926;2023-05-31T07:57:44;4.85;;;2.42;;
17953;SDS011;9102;53.548;9.926;2023-05-31T08:00:11;4.68;;;2.38;;
17953;SDS011;9102;53.548;9.926;2023-05-31T08:02:40;7.10;;;2.38;;
17953;SDS011;9102;53.548;9.926;2023-05-31T08:05:08;5.28;;;2.20;;
17953;SDS011;9102;53.548;9.926;2023-05-31T08:07:35;6.13;;;2.40;;
17953;SDS011;9102;53.548;9.926;2023-05-31T08:10:02;5.88;;;2.05;;
17953;SDS011;9102;53.548;9.926;2023-05-31T08:12:30;5.85;;;2.20;;
17953;SDS011;9102;53.548;9.926;2023-05-31T08:14:57;6.28;;;3.03;;
17953;SDS011;9102;53.548;9.926;2023-05-31T08:17:24;7.18;;;2.40;;
17953;SDS011;9102;53.548;9.926;2023-05-31T08:19:53;5.78;;;2.35;;
17953;SDS011;9102;53.548;9.926;2023-05-31T08:22:20;4.35;;;2.25;;
17953;SDS011;9102;53.548;9.926;2023-05-31T08:24:47;5.07;;;2.33;;
17953;SDS011;9102;53.548;9.926;2023-05-31T08:27:14;7.18;;;2.72;;
17953;SDS011;9102;53.548;9.926;2023-05-31T08:29:42;4.85;;;2.50;;
17953;SDS011;9102;53.548;9.926;2023-05-31T08:32:09;10.40;;;2.90;;
17953;SDS011;9102;53.548;9.926;2023-05-31T08:34:36;14.50;;;3.20;;
17953;SDS011;9102;53.548;9.926;2023-05-31T08:37:04;8.18;;;3.40;;
17953;SDS011;9102;53.548;9.926;2023-05-31T08:39:31;8.77;;;2.80;;
17953;SDS011;9102;53.548;9.926;2023-05-31T08:41:58;8.88;;;2.30;;
17953;SDS011;9102;53.548;9.926;2023-05-31T08:44:26;6.05;;;2.78;;
17953;SDS011;9102;53.548;9.926;2023-05-31T08:46:56;7.32;;;1.80;;
17953;SDS011;9102;53.548;9.926;2023-05-31T08:49:29;4.18;;;1.27;;
17953;SDS011;9102;53.548;9.926;2023-05-31T08:51:59;6.40;;;1.65;;
17953;SDS011;9102;53.548;9.926;2023-05-31T08:54:27;6.45;;;2.00;;
17953;SDS011;9102;53.548;9.926;2023-05-31T08:56:55;3.70;;;1.60;;
17953;SDS011;9102;53.548;9.926;2023-05-31T08:59:22;8.32;;;1.90;;
17953;SDS011;9102;53.548;9.926;2023-05-31T09:01:49;5.90;;;2.15;;
17953;SDS011;9102;53.548;9.926;2023-05-31T09:04:17;3.30;;;1.67;;
17953;SDS011;9102;53.548;9.926;2023-05-31T09:06:44;4.78;;;2.20;;
17953;SDS011;9102;53.548;9.926;2023-05-31T09:09:11;8.27;;;2.28;;
17953;SDS011;9102;53.548;9.926;2023-05-31T09:11:39;5.57;;;2.50;;
17953;SDS011;9102;53.548;9.926;2023-05-31T09:14:08;5.00;;;1.92;;
17953;SDS011;9102;53.548;9.926;2023-05-31T09:16:35;5.93;;;2.05;;
17953;SDS011;9102;53.548;9.926;2023-05-31T09:19:02;4.95;;;1.90;;
17953;SDS011;9102;53.548;9.926;2023-05-31T09:21:33;4.85;;;1.60;;
17953;SDS011;9102;53.548;9.926;2023-05-31T09:24:04;4.53;;;1.77;;
17953;SDS011;9102;53.548;9.926;2023-05-31T09:26:31;5.88;;;2.10;;
17953;SDS011;9102;53.548;9.926;2023-05-31T09:29:00;7.75;;;2.42;;
17953;SDS011;9102;53.548;9.926;2023-05-31T09:31:27;6.95;;;2.25;;
17953;SDS011;9102;53.548;9.926;2023-05-31T09:33:54;6.78;;;2.10;;
17953;SDS011;9102;53.548;9.926;2023-05-31T09:36:23;9.35;;;2.22;;
17953;SDS011;9102;53.548;9.926;2023-05-31T09:38:51;7.32;;;2.42;;
17953;SDS011;9102;53.548;9.926;2023-05-31T09:41:25;5.47;;;2.17;;
17953;SDS011;9102;53.548;9.926;2023-05-31T09:43:53;10.70;;;2.40;;
17953;SDS011;9102;53.548;9.926;2023-05-31T09:46:21;8.80;;;2.30;;
17953;SDS011;9102;53.548;9.926;2023-05-31T09:48:56;6.18;;;2.30;;
17953;SDS011;9102;53.548;9.926;2023-05-31T09:51:23;6.00;;;2.30;;
17953;SDS011;9102;53.548;9.926;2023-05-31T09:53:51;6.03;;;1.90;;
17953;SDS011;9102;53.548;9.926;2023-05-31T09:56:20;7.55;;;2.58;;
17953;SDS011;9102;53.548;9.926;2023-05-31T09:58:49;7.30;;;1.98;;
17953;SDS011;9102;53.548;9.926;2023-05-31T10:01:16;8.02;;;2.50;;
17953;SDS011;9102;53.548;9.926;2023-05-31T10:03:44;5.55;;;2.10;;
17953;SDS011;9102;53.548;9.926;2023-05-31T10:06:14;6.53;;;2.30;;
17953;SDS011;9102;53.548;9.926;2023-05-31T10:08:43;9.57;;;3.60;;
17953;SDS011;9102;53.548;9.926;2023-05-31T10:11:10;5.63;;;1.85;;
17953;SDS011;9102;53.548;9.926;2023-05-31T10:13:40;4.25;;;1.80;;
17953;SDS011;9102;53.548;9.926;2023-05-31T10:16:10;7.03;;;1.63;;
17953;SDS011;9102;53.548;9.926;2023-05-31T10:18:38;5.30;;;1.77;;
17953;SDS011;9102;53.548;9.926;2023-05-31T10:21:13;3.70;;;1.80;;
17953;SDS011;9102;53.548;9.926;2023-05-31T10:23:49;8.77;;;2.00;;
17953;SDS011;9102;53.548;9.926;2023-05-31T10:26:22;6.07;;;1.83;;
17953;SDS011;9102;53.548;9.926;2023-05-31T10:28:54;7.10;;;1.65;;
17953;SDS011;9102;53.548;9.926;2023-05-31T10:31:25;6.28;;;1.67;;
17953;SDS011;9102;53.548;9.926;2023-05-31T10:34:00;9.05;;;2.08;;
17953;SDS011;9102;53.548;9.926;2023-05-31T10:36:32;5.25;;;1.88;;
17953;SDS011;9102;53.548;9.926;2023-05-31T10:39:03;6.80;;;1.73;;
17953;SDS011;9102;53.548;9.926;2023-05-31T10:41:36;5.70;;;1.70;;
17953;SDS011;9102;53.548;9.926;2023-05-31T10:44:09;6.90;;;1.92;;
17953;SDS011;9102;53.548;9.926;2023-05-31T10:46:42;5.82;;;1.90;;
17953;SDS011;9102;53.548;9.926;2023-05-31T10:49:15;4.70;;;1.70;;
17953;SDS011;9102;53.548;9.926;2023-05-31T10:51:45;6.18;;;2.17;;
17953;SDS011;9102;53.548;9.926;2023-05-31T10:54:13;4.65;;;1.75;;
17953;SDS011;9102;53.548;9.926;2023-05-31T10:56:51;6.18;;;1.63;;
17953;SDS011;9102;53.548;9.926;2023-05-31T10:59:18;4.95;;;1.70;;
17953;SDS011;9102;53.548;9.926;2023-05-31T11:01:45;6.57;;;2.08;;
17953;SDS011;9102;53.548;9.926;2023-05-31T11:04:18;7.07;;;2.00;;
17953;SDS011;9102;53.548;9.926;2023-05-31T11:06:48;4.30;;;1.55;;
17953;SDS011;9102;53.548;9.926;2023-05-31T11:09:18;5.63;;;1.70;;
17953;SDS011;9102;53.548;9.926;2023-05-31T11:11:46;6.18;;;1.80;;
17953;SDS011;9102;53.548;9.926;2023-05-31T11:14:24;3.95;;;1.88;;
17953;SDS011;9102;53.548;9.926;2023-05-31T11:17:12;7.22;;;2.20;;
17953;SDS011;9102;53.548;9.926;2023-05-31T11:19:41;5.18;;;1.80;;
17953;SDS011;9102;53.548;9.926;2023-05-31T11:22:10;7.80;;;2.20;;
17953;SDS011;9102;53.548;9.926;2023-05-31T11:24:48;6.97;;;1.80;;
17953;SDS011;9102;53.548;9.926;2023-05-31T11:27:16;5.85;;;1.83;;
17953;SDS011;9102;53.548;9.926;2023-05-31T11:29:56;7.22;;;1.80;;
17953;SDS011;9102;53.548;9.926;2023-05-31T11:35:25;5.65;;;1.77;;
17953;SDS011;9102;53.548;9.926;2023-05-31T11:38:00;6.82;;;1.77;;
17953;SDS011;9102;53.548;9.926;2023-05-31T11:40:30;4.75;;;1.80;;
17953;SDS011;9102;53.548;9.926;2023-05-31T11:43:07;7.57;;;2.20;;
17953;SDS011;9102;53.548;9.926;2023-05-31T11:45:39;5.10;;;1.40;;
17953;SDS011;9102;53.548;9.926;2023-05-31T11:48:28;5.90;;;1.42;;
17953;SDS011;9102;53.548;9.926;2023-05-31T11:51:02;7.30;;;1.60;;
17953;SDS011;9102;53.548;9.926;2023-05-31T11:53:31;4.07;;;1.58;;
17953;SDS011;9102;53.548;9.926;2023-05-31T11:55:58;3.63;;;1.42;;
17953;SDS011;9102;53.548;9.926;2023-05-31T11:58:25;5.22;;;1.80;;
17953;SDS011;9102;53.548;9.926;2023-05-31T12:00:56;5.53;;;1.60;;
17953;SDS011;9102;53.548;9.926;2023-05-31T12:03:24;5.15;;;1.48;;
17953;SDS011;9102;53.548;9.926;2023-05-31T12:05:53;3.38;;;1.35;;
17953;SDS011;9102;53.548;9.926;2023-05-31T12:08:24;6.10;;;1.80;;
17953;SDS011;9102;53.548;9.926;2023-05-31T12:10:54;4.72;;;1.77;;
17953;SDS011;9102;53.548;9.926;2023-05-31T12:13:29;5.63;;;1.90;;
17953;SDS011;9102;53.548;9.926;2023-05-31T12:15:56;6.22;;;1.80;;
17953;SDS011;9102;53.548;9.926;2023-05-31T12:18:23;5.10;;;1.42;;
17953;SDS011;9102;53.548;9.926;2023-05-31T12:20:49;4.53;;;1.70;;
17953;SDS011;9102;53.548;9.926;2023-05-31T12:23:16;6.82;;;1.88;;
17953;SDS011;9102;53.548;9.926;2023-05-31T12:25:48;5.78;;;2.35;;
17953;SDS011;9102;53.548;9.926;2023-05-31T12:28:17;4.72;;;1.92;;
17953;SDS011;9102;53.548;9.926;2023-05-31T12:30:44;7.80;;;1.73;;
17953;SDS011;9102;53.548;9.926;2023-05-31T12:33:12;6.68;;;2.13;;
17953;SDS011;9102;53.548;9.926;2023-05-31T12:35:40;7.55;;;1.80;;
17953;SDS011;9102;53.548;9.926;2023-05-31T12:38:07;7.97;;;2.00;;
17953;SDS011;9102;53.548;9.926;2023-05-31T12:40:36;6.75;;;2.63;;
17953;SDS011;9102;53.548;9.926;2023-05-31T12:43:03;8.27;;;2.20;;
17953;SDS011;9102;53.548;9.926;2023-05-31T12:45:32;6.97;;;2.50;;
17953;SDS011;9102;53.548;9.926;2023-05-31T12:48:06;6.00;;;1.75;;
17953;SDS011;9102;53.548;9.926;2023-05-31T12:50:36;9.88;;;2.05;;
17953;SDS011;9102;53.548;9.926;2023-05-31T12:53:09;7.15;;;1.98;;
17953;SDS011;9102;53.548;9.926;2023-05-31T12:55:36;6.78;;;1.42;;
17953;SDS011;9102;53.548;9.926;2023-05-31T12:58:03;9.38;;;1.60;;
17953;SDS011;9102;53.548;9.926;2023-05-31T13:00:29;6.60;;;1.30;;
17953;SDS011;9102;53.548;9.926;2023-05-31T13:02:57;6.68;;;1.60;;
17953;SDS011;9102;53.548;9.926;2023-05-31T13:05:24;7.13;;;1.52;;
17953;SDS011;9102;53.548;9.926;2023-05-31T13:07:52;5.97;;;1.27;;
17953;SDS011;9102;53.548;9.926;2023-05-31T13:10:19;5.80;;;1.90;;
17953;SDS011;9102;53.548;9.926;2023-05-31T13:12:45;4.68;;;1.60;;
17953;SDS011;9102;53.548;9.926;2023-05-31T13:15:12;4.65;;;1.60;;
17953;SDS011;9102;53.548;9.926;2023-05-31T13:17:39;3.47;;;1.13;;
17953;SDS011;9102;53.548;9.926;2023-05-31T13:20:07;2.42;;;1.17;;
17953;SDS011;9102;53.548;9.926;2023-05-31T13:22:35;5.63;;;1.30;;
17953;SDS011;9102;53.548;9.926;2023-05-31T13:25:02;2.80;;;1.10;;
17953;SDS011;9102;53.548;9.926;2023-05-31T13:27:29;3.92;;;1.25;;
17953;SDS011;9102;53.548;9.926;2023-05-31T13:29:56;6.15;;;1.50;;
17953;SDS011;9102;53.548;9.926;2023-05-31T13:32:22;4.82;;;1.23;;
17953;SDS011;9102;53.548;9.926;2023-05-31T13:34:49;4.13;;;1.50;;
17953;SDS011;9102;53.548;9.926;2023-05-31T13:37:17;4.05;;;0.93;;
17953;SDS011;9102;53.548;9.926;2023-05-31T13:39:46;6.88;;;1.52;;
17953;SDS011;9102;53.548;9.926;2023-05-31T13:42:13;3.38;;;1.10;;
17953;SDS011;9102;53.548;9.926;2023-05-31T13:44:40;3.03;;;1.08;;
17953;SDS011;9102;53.548;9.926;2023-05-31T13:47:06;6.20;;;1.40;;
17953;SDS011;9102;53.548;9.926;2023-05-31T13:49:34;4.25;;;1.30;;
17953;SDS011;9102;53.548;9.926;2023-05-31T13:52:02;6.88;;;1.55;;
17953;SDS011;9102;53.548;9.926;2023-05-31T13:54:31;3.42;;;1.10;;
17953;SDS011;9102;53.548;9.926;2023-05-31T13:56:58;3.88;;;1.00;;
17953;SDS011;9102;53.548;9.926;2023-05-31T13:59:24;4.43;;;1.13;;
17953;SDS011;9102;53.548;9.926;2023-05-31T14:01:51;4.35;;;1.63;;
17953;SDS011;9102;53.548;9.926;2023-05-31T14:04:18;3.42;;;1.15;;
17953;SDS011;9102;53.548;9.926;2023-05-31T14:06:45;7.35;;;1.50;;
17953;SDS011;9102;53.548;9.926;2023-05-31T14:09:12;6.15;;;1.30;;
17953;SDS011;9102;53.548;9.926;2023-05-31T14:11:41;5.25;;;1.33;;
17953;SDS011;9102;53.548;9.926;2023-05-31T14:14:07;3.20;;;1.25;;
17953;SDS011;9102;53.548;9.926;2023-05-31T14:16:35;6.20;;;1.58;;
17953;SDS011;9102;53.548;9.926;2023-05-31T14:19:02;6.13;;;1.27;;
17953;SDS011;9102;53.548;9.926;2023-05-31T14:21:29;4.50;;;1.13;;
17953;SDS011;9102;53.548;9.926;2023-05-31T14:23:57;3.03;;;1.40;;
17953;SDS011;9102;53.548;9.926;2023-05-31T14:26:24;4.93;;;1.55;;
17953;SDS011;9102;53.548;9.926;2023-05-31T14:28:53;2.40;;;1.15;;
17953;SDS011;9102;53.548;9.926;2023-05-31T14:31:20;8.57;;;1.50;;
17953;SDS011;9102;53.548;9.926;2023-05-31T14:33:46;5.28;;;1.67;;
17953;SDS011;9102;53.548;9.926;2023-05-31T14:36:13;7.38;;;1.73;;
17953;SDS011;9102;53.548;9.926;2023-05-31T14:38:40;7.85;;;1.90;;
17953;SDS011;9102;53.548;9.926;2023-05-31T14:41:07;5.28;;;1.85;;
17953;SDS011;9102;53.548;9.926;2023-05-31T14:43:34;3.97;;;1.50;;
17953;SDS011;9102;53.548;9.926;2023-05-31T14:46:02;6.35;;;1.75;;
17953;SDS011;9102;53.548;9.926;2023-05-31T14:48:29;10.85;;;2.30;;
17953;SDS011;9102;53.548;9.926;2023-05-31T14:50:55;7.05;;;1.75;;
17953;SDS011;9102;53.548;9.926;2023-05-31T14:53:22;6.95;;;1.80;;
17953;SDS011;9102;53.548;9.926;2023-05-31T14:55:49;7.13;;;1.80;;
17953;SDS011;9102;53.548;9.926;2023-05-31T14:58:16;3.55;;;1.70;;
17953;SDS011;9102;53.548;9.926;2023-05-31T15:00:43;7.43;;;2.20;;
17953;SDS011;9102;53.548;9.926;2023-05-31T15:03:11;5.47;;;1.70;;